Time;durP1;ratioP1;P1;durP2;ratioP2;P2;SDS_P1;SDS_P2;PMS_P1;PMS_P2;Temp;Humidity;BMP_temperature;BMP_pressure;BME280_temperature;BME280_humidity;BME280_pressure;Samples;Min_cycle;Max_cycle;Signal;HPM_P1;HPM_P2
2022/08/09 00:00:18;;;;;;;4.60;2.07;;;;;;;;;;5054174;28;20440;-79
2022/08/09 00:02:44;;;;;;;5.40;2.93;;;;;;;;;;5056081;28;20384;-79
2022/08/09 00:05:10;;;;;;;5.63;2.83;;;;;;;;;;5055895;28;20477;-79
2022/08/09 00:07:36;;;;;;;4.17;2.40;;;;;;;;;;5055927;28;20466;-78
2022/08/09 00:10:03;;;;;;;5.60;2.60;;;;;;;;;;5055411;28;20580;-77
2022/08/09 00:12:29;;;;;;;2.43;2.00;;;;;;;;;;5055813;28;20431;-78
2022/08/09 00:14:55;;;;;;;7.80;2.20;;;;;;;;;;5055750;28;20414;-78
2022/08/09 00:17:21;;;;;;;6.53;2.07;;;;;;;;;;5055757;28;20464;-79
2022/08/09 00:19:47;;;;;;;4.20;2.60;;;;;;;;;;5053898;28;20421;-81
2022/08/09 00:22:13;;;;;;;3.00;2.43;;;;;;;;;;5054105;28;20454;-79
2022/08/09 00:24:39;;;;;;;3.30;2.37;;;;;;;;;;5055382;28;21129;-78
2022/08/09 00:27:05;;;;;;;3.83;2.20;;;;;;;;;;5055562;28;20503;-79
2022/08/09 00:29:31;;;;;;;5.40;2.57;;;;;;;;;;5054300;28;20786;-79
2022/08/09 00:31:57;;;;;;;7.60;3.03;;;;;;;;;;5055767;28;20522;-80
2022/08/09 00:34:23;;;;;;;5.33;2.43;;;;;;;;;;5055663;28;20406;-78
2022/08/09 00:36:49;;;;;;;4.43;2.50;;;;;;;;;;5056031;28;20399;-80
2022/08/09 00:39:16;;;;;;;3.00;1.97;;;;;;;;;;5055805;28;20450;-78
2022/08/09 00:41:42;;;;;;;4.57;2.40;;;;;;;;;;5055366;28;20792;-77
2022/08/09 00:44:08;;;;;;;3.40;2.33;;;;;;;;;;5055533;28;20497;-79
2022/08/09 00:46:35;;;;;;;3.87;2.47;;;;;;;;;;5055554;28;20443;-79
2022/08/09 00:49:01;;;;;;;6.03;3.13;;;;;;;;;;5055577;28;20413;-81
2022/08/09 00:51:27;;;;;;;5.00;2.40;;;;;;;;;;5055092;28;20767;-78
2022/08/09 00:53:53;;;;;;;3.73;2.40;;;;;;;;;;5054393;28;20572;-78
2022/08/09 00:56:20;;;;;;;4.27;2.27;;;;;;;;;;5055354;28;20499;-78
2022/08/09 00:58:49;;;;;;;11.13;3.10;;;;;;;;;;5054229;28;20397;-78
2022/08/09 01:01:18;;;;;;;6.10;2.50;;;;;;;;;;5054994;28;20485;-78
2022/08/09 01:03:47;;;;;;;3.67;2.67;;;;;;;;;;5055305;28;20766;-77
2022/08/09 01:06:32;;;;;;;9.23;3.00;;;;;;;;;;5053999;28;20424;-77
2022/08/09 01:08:58;;;;;;;3.23;2.30;;;;;;;;;;5055226;28;20741;-79
2022/08/09 01:11:27;;;;;;;6.03;2.97;;;;;;;;;;5054730;28;20406;-77
2022/08/09 01:13:57;;;;;;;3.03;2.53;;;;;;;;;;5055152;28;20410;-82
2022/08/09 01:16:25;;;;;;;4.83;3.07;;;;;;;;;;5054953;28;20429;-76
2022/08/09 01:18:52;;;;;;;4.47;2.20;;;;;;;;;;5053822;28;20485;-78
2022/08/09 01:21:37;;;;;;;4.47;2.73;;;;;;;;;;5053306;28;20467;-77
2022/08/09 01:24:22;;;;;;;4.63;3.23;;;;;;;;;;5054858;28;20546;-77
2022/08/09 01:26:53;;;;;;;5.90;3.63;;;;;;;;;;5054688;28;20486;-80
2022/08/09 01:29:22;;;;;;;4.60;2.70;;;;;;;;;;5054830;28;20386;-81
2022/08/09 01:31:49;;;;;;;3.40;3.10;;;;;;;;;;5054413;28;20421;-79
2022/08/09 01:34:17;;;;;;;4.67;3.67;;;;;;;;;;5054689;28;20428;-79
2022/08/09 01:36:44;;;;;;;4.73;3.20;;;;;;;;;;5054526;28;20440;-79
2022/08/09 01:39:11;;;;;;;8.13;3.00;;;;;;;;;;5054544;28;20419;-81
2022/08/09 01:41:40;;;;;;;6.10;3.50;;;;;;;;;;5053831;28;20503;-81
2022/08/09 01:44:06;;;;;;;8.07;3.00;;;;;;;;;;5054456;28;20468;-79
2022/08/09 01:46:42;;;;;;;8.03;3.07;;;;;;;;;;5054482;28;20452;-80
2022/08/09 01:49:09;;;;;;;6.63;3.10;;;;;;;;;;5054391;28;20462;-81
2022/08/09 01:51:36;;;;;;;4.27;3.27;;;;;;;;;;5053839;28;20423;-79
2022/08/09 01:54:03;;;;;;;6.00;2.90;;;;;;;;;;5054351;28;20478;-79
2022/08/09 01:56:30;;;;;;;8.33;3.70;;;;;;;;;;5054216;28;20399;-80
2022/08/09 01:58:57;;;;;;;5.30;3.10;;;;;;;;;;5052860;28;20448;-80
2022/08/09 02:01:24;;;;;;;6.23;3.23;;;;;;;;;;5052734;28;20432;-80
2022/08/09 02:03:50;;;;;;;4.33;3.73;;;;;;;;;;5053956;28;20499;-79
2022/08/09 02:07:07;;;;;;;7.87;3.63;;;;;;;;;;5052812;28;20421;-79
2022/08/09 02:09:05;;;;;;;6.43;3.57;;;;;;;;;;5053778;28;20402;-80
2022/08/09 02:11:31;;;;;;;4.80;3.40;;;;;;;;;;5053722;28;20436;-78
2022/08/09 02:13:57;;;;;;;7.17;3.03;;;;;;;;;;5052857;28;20394;-79
2022/08/09 02:16:23;;;;;;;6.00;3.50;;;;;;;;;;5052581;28;20463;-79
2022/08/09 02:18:50;;;;;;;5.80;3.30;;;;;;;;;;5053674;28;20403;-80
2022/08/09 02:21:19;;;;;;;5.67;3.40;;;;;;;;;;5053422;28;20469;-78
2022/08/09 02:23:55;;;;;;;5.67;3.70;;;;;;;;;;5052286;28;20913;-78
2022/08/09 02:26:22;;;;;;;4.40;4.00;;;;;;;;;;5053655;28;20933;-80
2022/08/09 02:28:53;;;;;;;6.17;3.40;;;;;;;;;;5053600;28;20382;-78
2022/08/09 02:31:21;;;;;;;5.57;3.57;;;;;;;;;;5053067;28;20838;-79
2022/08/09 02:33:49;;;;;;;6.57;3.90;;;;;;;;;;5053390;28;20401;-79
2022/08/09 02:36:20;;;;;;;4.13;3.70;;;;;;;;;;5053486;28;20431;-80
2022/08/09 02:38:47;;;;;;;4.10;3.70;;;;;;;;;;5053337;28;20420;-79
2022/08/09 02:41:15;;;;;;;4.37;3.70;;;;;;;;;;5052952;28;20919;-79
2022/08/09 02:43:42;;;;;;;5.67;3.60;;;;;;;;;;5052035;28;20392;-79
2022/08/09 02:46:09;;;;;;;6.07;3.57;;;;;;;;;;5053402;28;20496;-79
2022/08/09 02:48:36;;;;;;;5.60;3.93;;;;;;;;;;5053251;28;20384;-81
2022/08/09 02:51:03;;;;;;;8.10;3.67;;;;;;;;;;5051657;28;20459;-80
2022/08/09 02:53:30;;;;;;;4.63;3.40;;;;;;;;;;5053342;28;20546;-79
2022/08/09 02:55:57;;;;;;;6.20;3.63;;;;;;;;;;5053410;28;20844;-79
2022/08/09 02:58:25;;;;;;;6.13;3.47;;;;;;;;;;5053382;28;20861;-79
2022/08/09 03:00:52;;;;;;;4.10;3.60;;;;;;;;;;5051877;28;20803;-80
2022/08/09 03:03:18;;;;;;;8.73;3.83;;;;;;;;;;5053159;28;20440;-79
2022/08/09 03:05:45;;;;;;;6.23;4.13;;;;;;;;;;5053095;28;20494;-79
2022/08/09 03:08:12;;;;;;;4.93;3.70;;;;;;;;;;5053146;28;20427;-80
2022/08/09 03:10:39;;;;;;;5.30;4.70;;;;;;;;;;5051555;28;20472;-78
2022/08/09 03:13:06;;;;;;;7.80;4.27;;;;;;;;;;5053041;28;20494;-81
2022/08/09 03:15:32;;;;;;;5.50;4.43;;;;;;;;;;5052992;28;20449;-79
2022/08/09 03:17:59;;;;;;;7.73;5.00;;;;;;;;;;5053109;28;20419;-79
2022/08/09 03:20:26;;;;;;;5.40;3.93;;;;;;;;;;5052591;28;20443;-79
2022/08/09 03:22:52;;;;;;;3.90;3.53;;;;;;;;;;5052969;28;20392;-80
2022/08/09 03:25:18;;;;;;;10.43;4.03;;;;;;;;;;5052719;28;20464;-79
2022/08/09 03:27:46;;;;;;;6.87;4.00;;;;;;;;;;5052879;28;20788;-79
2022/08/09 03:30:13;;;;;;;4.93;3.90;;;;;;;;;;5055368;28;20402;-80
2022/08/09 03:32:40;;;;;;;8.70;3.77;;;;;;;;;;5055804;28;20392;-79
2022/08/09 03:35:06;;;;;;;5.83;3.50;;;;;;;;;;5056725;28;20424;-78
2022/08/09 03:37:32;;;;;;;7.50;3.57;;;;;;;;;;5056648;28;20428;-81
2022/08/09 03:39:58;;;;;;;5.80;3.90;;;;;;;;;;5056324;28;20930;-80
2022/08/09 03:42:24;;;;;;;5.70;4.00;;;;;;;;;;5056897;28;20415;-79
2022/08/09 03:44:50;;;;;;;12.80;4.60;;;;;;;;;;5055485;28;20472;-80
2022/08/09 03:47:16;;;;;;;4.50;4.10;;;;;;;;;;5057001;28;20437;-78
2022/08/09 03:49:42;;;;;;;6.30;4.47;;;;;;;;;;5056263;28;20470;-79
2022/08/09 03:52:09;;;;;;;7.73;4.10;;;;;;;;;;5056635;28;20437;-79
2022/08/09 03:54:36;;;;;;;4.60;3.80;;;;;;;;;;5056621;28;20740;-79
2022/08/09 03:57:07;;;;;;;3.73;3.40;;;;;;;;;;5056625;28;20391;-78
2022/08/09 03:59:33;;;;;;;4.07;3.67;;;;;;;;;;5056124;28;20412;-80
2022/08/09 04:02:00;;;;;;;4.43;3.70;;;;;;;;;;5056422;28;20502;-78
2022/08/09 04:04:26;;;;;;;7.57;3.60;;;;;;;;;;5056444;28;20518;-79
2022/08/09 04:06:53;;;;;;;5.97;4.13;;;;;;;;;;5056300;28;20412;-79
2022/08/09 04:09:19;;;;;;;4.83;3.60;;;;;;;;;;5056494;28;20426;-80
2022/08/09 04:11:58;;;;;;;5.30;3.77;;;;;;;;;;5055947;28;20424;-80
2022/08/09 04:14:24;;;;;;;5.70;4.80;;;;;;;;;;5056447;28;20765;-79
2022/08/09 04:16:50;;;;;;;4.23;3.20;;;;;;;;;;5056275;28;20429;-78
2022/08/09 04:19:16;;;;;;;4.53;3.80;;;;;;;;;;5056207;28;20394;-78
2022/08/09 04:21:44;;;;;;;4.40;4.00;;;;;;;;;;5055585;28;20903;-77
2022/08/09 04:24:10;;;;;;;6.83;4.10;;;;;;;;;;5055762;28;20513;-79
2022/08/09 04:26:36;;;;;;;5.97;4.43;;;;;;;;;;5055975;28;20490;-78
2022/08/09 04:29:02;;;;;;;7.53;4.17;;;;;;;;;;5055898;28;20411;-77
2022/08/09 04:31:28;;;;;;;6.07;4.10;;;;;;;;;;5055469;28;20407;-78
2022/08/09 04:33:54;;;;;;;6.50;4.70;;;;;;;;;;5055557;28;20475;-78
2022/08/09 04:36:21;;;;;;;5.97;4.50;;;;;;;;;;5055730;28;20380;-77
2022/08/09 04:38:47;;;;;;;5.70;4.23;;;;;;;;;;5056012;28;20749;-78
2022/08/09 04:41:13;;;;;;;7.20;4.97;;;;;;;;;;5055279;28;20429;-77
2022/08/09 04:43:39;;;;;;;5.17;4.37;;;;;;;;;;5055728;28;20394;-79
2022/08/09 04:46:06;;;;;;;4.77;3.77;;;;;;;;;;5055552;28;20416;-78
2022/08/09 04:48:32;;;;;;;6.50;4.10;;;;;;;;;;5055624;28;20380;-79
2022/08/09 04:50:58;;;;;;;7.13;4.50;;;;;;;;;;5055014;28;20498;-77
2022/08/09 04:53:24;;;;;;;4.00;3.60;;;;;;;;;;5055421;28;20397;-79
2022/08/09 04:55:50;;;;;;;6.37;4.23;;;;;;;;;;5055547;28;20412;-78
2022/08/09 04:58:16;;;;;;;7.97;4.90;;;;;;;;;;5055489;28;20436;-78
2022/08/09 05:00:42;;;;;;;5.27;4.10;;;;;;;;;;5054677;28;20883;-78
2022/08/09 05:03:07;;;;;;;5.30;3.87;;;;;;;;;;5055294;28;20418;-78
2022/08/09 05:05:33;;;;;;;5.07;4.57;;;;;;;;;;5054175;28;20799;-78
2022/08/09 05:07:59;;;;;;;9.40;4.87;;;;;;;;;;5055303;28;20399;-78
2022/08/09 05:10:26;;;;;;;4.93;3.77;;;;;;;;;;5053700;28;20410;-78
2022/08/09 05:12:52;;;;;;;4.30;3.90;;;;;;;;;;5053906;28;20773;-78
2022/08/09 05:15:18;;;;;;;5.03;4.00;;;;;;;;;;5055038;28;20383;-77
2022/08/09 05:17:44;;;;;;;6.20;3.70;;;;;;;;;;5054977;28;20383;-79
2022/08/09 05:20:10;;;;;;;6.53;4.00;;;;;;;;;;5054632;28;20486;-77
2022/08/09 05:22:36;;;;;;;5.07;4.37;;;;;;;;;;5053640;28;20417;-78
2022/08/09 05:25:02;;;;;;;6.30;4.27;;;;;;;;;;5054624;28;20435;-79
2022/08/09 05:27:28;;;;;;;7.57;5.20;;;;;;;;;;5054660;28;20409;-78
2022/08/09 05:29:54;;;;;;;4.87;4.43;;;;;;;;;;5053241;28;20512;-78
2022/08/09 05:32:22;;;;;;;10.63;5.37;;;;;;;;;;5054582;28;20500;-79
2022/08/09 05:34:48;;;;;;;5.47;4.40;;;;;;;;;;5054655;28;20410;-77
2022/08/09 05:37:14;;;;;;;4.70;4.30;;;;;;;;;;5054821;28;20790;-78
2022/08/09 05:39:41;;;;;;;6.23;5.13;;;;;;;;;;5052913;28;20440;-78
2022/08/09 05:42:07;;;;;;;6.47;4.53;;;;;;;;;;5054624;28;20444;-76
2022/08/09 05:44:33;;;;;;;4.10;3.57;;;;;;;;;;5054387;28;20456;-77
2022/08/09 05:46:59;;;;;;;4.80;4.30;;;;;;;;;;5054592;28;20392;-80
2022/08/09 05:49:31;;;;;;;5.03;4.53;;;;;;;;;;5054358;28;20405;-81
2022/08/09 06:03:24;;;;;;;5.87;4.67;;;;;;;;;;5494454;22;20484;-79
2022/08/09 06:05:50;;;;;;;7.27;4.23;;;;;;;;;;5053966;28;20518;-79
2022/08/09 06:08:16;;;;;;;6.53;4.70;;;;;;;;;;5054043;28;20418;-76
2022/08/09 06:10:43;;;;;;;6.03;4.70;;;;;;;;;;5053808;28;20509;-76
2022/08/09 06:13:10;;;;;;;8.93;4.07;;;;;;;;;;5052615;28;20417;-76
2022/08/09 06:15:36;;;;;;;4.33;3.90;;;;;;;;;;5054059;28;20419;-76
2022/08/09 06:18:02;;;;;;;4.63;4.00;;;;;;;;;;5054017;28;20419;-76
2022/08/09 06:20:28;;;;;;;7.50;4.10;;;;;;;;;;5053514;28;20407;-76
2022/08/09 06:22:54;;;;;;;10.20;4.80;;;;;;;;;;5053736;28;20427;-76
2022/08/09 06:25:20;;;;;;;7.13;4.57;;;;;;;;;;5053775;28;20456;-76
2022/08/09 06:27:46;;;;;;;5.53;4.50;;;;;;;;;;5053545;28;20409;-76
2022/08/09 06:30:12;;;;;;;4.37;3.97;;;;;;;;;;5053253;28;20429;-76
2022/08/09 06:32:39;;;;;;;9.13;4.43;;;;;;;;;;5053377;28;20413;-77
2022/08/09 06:35:05;;;;;;;4.83;3.57;;;;;;;;;;5035716;28;20740;-76
2022/08/09 06:37:31;;;;;;;7.50;4.70;;;;;;;;;;5052275;28;20810;-77
2022/08/09 06:39:57;;;;;;;5.00;3.60;;;;;;;;;;5053050;28;20463;-77
2022/08/09 06:42:26;;;;;;;5.67;3.60;;;;;;;;;;5053479;28;20506;-76
2022/08/09 06:44:52;;;;;;;4.03;3.53;;;;;;;;;;5052917;28;20460;-77
2022/08/09 06:47:18;;;;;;;5.87;3.47;;;;;;;;;;5052294;28;20516;-77
2022/08/09 06:49:44;;;;;;;5.23;3.43;;;;;;;;;;5051809;28;20417;-78
2022/08/09 06:52:11;;;;;;;5.03;4.03;;;;;;;;;;5053307;28;20898;-79
2022/08/09 06:54:37;;;;;;;3.90;3.60;;;;;;;;;;5053412;28;20793;-78
2022/08/09 06:57:03;;;;;;;6.43;3.60;;;;;;;;;;5053211;28;20509;-78
2022/08/09 06:59:29;;;;;;;3.37;3.03;;;;;;;;;;5053298;28;20400;-79
2022/08/09 07:01:55;;;;;;;7.10;3.87;;;;;;;;;;5051632;28;20872;-78
2022/08/09 07:04:21;;;;;;;5.00;3.30;;;;;;;;;;5052145;28;20472;-78
2022/08/09 07:06:47;;;;;;;5.70;3.13;;;;;;;;;;5053133;28;20490;-78
2022/08/09 07:09:14;;;;;;;5.07;3.60;;;;;;;;;;5053247;28;20817;-78
2022/08/09 07:11:40;;;;;;;5.57;3.07;;;;;;;;;;5052819;28;20435;-78
2022/08/09 07:14:06;;;;;;;5.03;3.60;;;;;;;;;;5035227;28;20871;-78
2022/08/09 07:16:32;;;;;;;8.47;3.83;;;;;;;;;;5051757;28;20438;-76
2022/08/09 07:18:58;;;;;;;5.57;3.60;;;;;;;;;;5051924;28;20769;-79
2022/08/09 07:21:24;;;;;;;4.70;3.33;;;;;;;;;;5052594;28;20440;-78
2022/08/09 07:23:50;;;;;;;4.77;3.60;;;;;;;;;;5053084;28;20400;-78
2022/08/09 07:26:16;;;;;;;10.07;4.13;;;;;;;;;;5052924;28;20770;-77
2022/08/09 07:28:42;;;;;;;4.17;3.77;;;;;;;;;;5052892;28;20424;-77
2022/08/09 07:31:08;;;;;;;6.00;3.20;;;;;;;;;;5052017;28;20445;-78
2022/08/09 07:33:34;;;;;;;3.80;2.80;;;;;;;;;;5052546;28;20410;-77
2022/08/09 07:36:00;;;;;;;3.90;3.13;;;;;;;;;;5052982;28;20476;-77
2022/08/09 07:38:26;;;;;;;6.30;3.83;;;;;;;;;;5052904;28;20919;-77
2022/08/09 07:41:04;;;;;;;8.17;3.70;;;;;;;;;;5319192;22;20526;-77
2022/08/09 07:43:30;;;;;;;3.83;3.47;;;;;;;;;;5052566;28;20836;-77
2022/08/09 07:45:56;;;;;;;3.83;2.83;;;;;;;;;;5052736;28;20500;-77
2022/08/09 07:48:23;;;;;;;5.70;3.43;;;;;;;;;;5052728;28;20751;-77
2022/08/09 07:50:49;;;;;;;17.43;4.17;;;;;;;;;;5052347;28;20482;-77
2022/08/09 07:53:15;;;;;;;4.37;3.00;;;;;;;;;;5052890;28;20417;-77
2022/08/09 07:55:41;;;;;;;12.13;3.30;;;;;;;;;;5052551;28;20916;-77
2022/08/09 07:58:07;;;;;;;4.57;3.70;;;;;;;;;;5052783;28;20507;-76
2022/08/09 08:00:33;;;;;;;4.47;3.03;;;;;;;;;;5051054;28;20443;-77
2022/08/09 08:03:00;;;;;;;8.80;3.73;;;;;;;;;;5052498;28;20412;-76
2022/08/09 08:05:26;;;;;;;5.63;2.77;;;;;;;;;;5052539;28;20551;-78
2022/08/09 08:07:53;;;;;;;6.63;3.17;;;;;;;;;;5051184;28;20420;-76
2022/08/09 08:10:19;;;;;;;5.33;2.53;;;;;;;;;;5050961;28;20949;-77
2022/08/09 08:12:46;;;;;;;6.60;2.90;;;;;;;;;;5052459;28;20953;-76
2022/08/09 08:15:13;;;;;;;8.17;3.17;;;;;;;;;;5053595;28;20413;-77
2022/08/09 08:17:39;;;;;;;4.07;2.47;;;;;;;;;;5056293;28;20407;-77
2022/08/09 08:20:05;;;;;;;6.13;2.30;;;;;;;;;;5055965;28;20428;-77
2022/08/09 08:22:31;;;;;;;3.33;2.50;;;;;;;;;;5056452;28;20416;-77
2022/08/09 08:24:57;;;;;;;5.03;2.90;;;;;;;;;;5056151;28;20458;-77
2022/08/09 08:27:23;;;;;;;4.67;2.30;;;;;;;;;;5056140;28;20440;-77
2022/08/09 08:29:49;;;;;;;5.17;2.87;;;;;;;;;;5055512;28;20425;-76
2022/08/09 08:32:16;;;;;;;3.93;2.63;;;;;;;;;;5055935;28;20919;-76
2022/08/09 08:34:42;;;;;;;4.70;2.57;;;;;;;;;;5055947;28;20534;-77
2022/08/09 08:37:08;;;;;;;4.07;3.00;;;;;;;;;;5055708;28;20509;-76
2022/08/09 08:39:34;;;;;;;4.03;2.37;;;;;;;;;;5055458;28;20471;-76
2022/08/09 08:42:00;;;;;;;4.07;2.80;;;;;;;;;;5055437;28;20947;-78
2022/08/09 08:44:28;;;;;;;4.03;3.10;;;;;;;;;;5055643;28;20566;-77
2022/08/09 08:46:54;;;;;;;4.30;3.10;;;;;;;;;;5055603;28;20420;-77
2022/08/09 08:49:20;;;;;;;4.90;2.53;;;;;;;;;;5054241;28;20534;-77
2022/08/09 08:51:47;;;;;;;3.27;2.43;;;;;;;;;;5054850;28;20433;-77
2022/08/09 08:54:13;;;;;;;4.40;2.90;;;;;;;;;;5055026;28;20422;-77
2022/08/09 08:56:40;;;;;;;3.47;2.20;;;;;;;;;;5055235;28;20421;-77
2022/08/09 08:59:10;;;;;;;4.80;2.80;;;;;;;;;;5055144;28;20414;-77
2022/08/09 09:01:37;;;;;;;4.60;2.67;;;;;;;;;;5054511;28;20436;-77
2022/08/09 09:04:03;;;;;;;4.53;2.63;;;;;;;;;;5054684;28;20466;-76
2022/08/09 09:06:34;;;;;;;2.70;2.43;;;;;;;;;;5054803;28;20495;-77
2022/08/09 09:09:01;;;;;;;4.80;3.47;;;;;;;;;;5054768;28;20408;-77
2022/08/09 09:11:28;;;;;;;3.20;2.23;;;;;;;;;;5054472;28;20464;-77
2022/08/09 09:13:55;;;;;;;3.93;2.50;;;;;;;;;;5054697;28;20908;-77
2022/08/09 09:16:21;;;;;;;4.37;2.37;;;;;;;;;;5054839;28;20840;-77
2022/08/09 09:18:53;;;;;;;4.67;2.57;;;;;;;;;;5055024;28;20413;-77
2022/08/09 09:21:19;;;;;;;3.30;2.90;;;;;;;;;;5054472;28;20435;-77
2022/08/09 09:23:46;;;;;;;4.70;2.53;;;;;;;;;;5054628;28;20493;-77
2022/08/09 09:26:12;;;;;;;2.90;2.57;;;;;;;;;;5053841;28;20530;-77
2022/08/09 09:28:43;;;;;;;3.93;2.60;;;;;;;;;;5054127;28;20900;-77
2022/08/09 09:31:12;;;;;;;6.40;3.20;;;;;;;;;;5054347;28;20507;-77
2022/08/09 09:33:38;;;;;;;5.53;3.00;;;;;;;;;;5054535;28;20409;-77
2022/08/09 09:36:05;;;;;;;4.57;2.63;;;;;;;;;;5054259;28;20424;-77
2022/08/09 09:38:40;;;;;;;3.53;2.90;;;;;;;;;;5054531;28;20780;-75
2022/08/09 09:41:07;;;;;;;3.63;2.73;;;;;;;;;;5053781;28;20455;-77
2022/08/09 09:43:33;;;;;;;4.27;2.57;;;;;;;;;;5054313;28;20419;-77
2022/08/09 09:46:01;;;;;;;7.17;2.80;;;;;;;;;;5054104;28;20484;-76
2022/08/09 09:48:28;;;;;;;3.70;2.43;;;;;;;;;;5054013;28;20408;-77
2022/08/09 09:50:55;;;;;;;5.67;2.70;;;;;;;;;;5053749;28;20424;-77
2022/08/09 09:53:22;;;;;;;4.73;2.33;;;;;;;;;;5054021;28;20439;-77
2022/08/09 09:55:52;;;;;;;4.70;2.90;;;;;;;;;;5054042;28;20409;-77
2022/08/09 09:58:19;;;;;;;6.67;2.87;;;;;;;;;;5054292;28;20409;-77
2022/08/09 10:00:48;;;;;;;5.13;2.77;;;;;;;;;;5053559;28;20432;-75
2022/08/09 10:03:14;;;;;;;5.50;2.50;;;;;;;;;;5054129;28;20417;-77
2022/08/09 10:05:59;;;;;;;3.20;2.50;;;;;;;;;;5053947;28;20551;-77
2022/08/09 10:08:25;;;;;;;4.73;2.63;;;;;;;;;;5052587;28;20428;-77
2022/08/09 10:10:52;;;;;;;4.50;2.47;;;;;;;;;;5053374;28;20830;-77
2022/08/09 10:13:18;;;;;;;2.10;1.90;;;;;;;;;;5053822;28;20513;-77
2022/08/09 10:15:48;;;;;;;5.20;3.10;;;;;;;;;;5053536;28;20420;-77
2022/08/09 10:18:14;;;;;;;5.20;2.50;;;;;;;;;;5053668;28;20876;-77
2022/08/09 10:20:40;;;;;;;2.80;2.57;;;;;;;;;;5052923;28;20975;-77
2022/08/09 10:23:19;;;;;;;4.93;2.60;;;;;;;;;;5053593;28;20420;-77
2022/08/09 10:25:46;;;;;;;3.20;2.23;;;;;;;;;;5053356;28;20460;-77
2022/08/09 10:28:12;;;;;;;5.07;2.60;;;;;;;;;;5053370;28;20412;-77
2022/08/09 10:30:44;;;;;;;3.07;2.00;;;;;;;;;;5052837;28;20828;-77
2022/08/09 10:33:10;;;;;;;3.63;2.57;;;;;;;;;;5053354;28;20852;-76
2022/08/09 10:35:37;;;;;;;4.10;2.93;;;;;;;;;;5053111;28;20419;-76
2022/08/09 10:38:05;;;;;;;2.37;2.17;;;;;;;;;;5052975;28;20566;-75
2022/08/09 10:40:31;;;;;;;2.43;2.23;;;;;;;;;;5052236;28;20436;-76
2022/08/09 10:42:57;;;;;;;7.60;2.80;;;;;;;;;;5052906;28;20416;-76
2022/08/09 10:45:23;;;;;;;5.40;2.60;;;;;;;;;;5053038;28;20986;-76
2022/08/09 10:48:01;;;;;;;6.77;2.30;;;;;;;;;;5053260;28;20966;-76
2022/08/09 10:51:05;;;;;;;2.10;1.97;;;;;;;;;;5052992;28;20512;-76
2022/08/09 10:53:26;;;;;;;2.43;2.00;;;;;;;;;;5053223;28;20848;-76
2022/08/09 10:56:12;;;;;;;4.63;2.40;;;;;;;;;;5053434;28;20403;-76
2022/08/09 10:58:38;;;;;;;2.60;2.07;;;;;;;;;;5053202;28;20971;-76
2022/08/09 11:01:04;;;;;;;3.77;2.43;;;;;;;;;;5052762;28;20527;-76
2022/08/09 11:03:30;;;;;;;3.20;2.23;;;;;;;;;;5053196;28;20440;-76
2022/08/09 11:06:33;;;;;;;2.90;2.63;;;;;;;;;;5052922;28;20510;-76
2022/08/09 11:08:59;;;;;;;3.53;2.73;;;;;;;;;;4991639;28;20573;-77
2022/08/09 11:11:25;;;;;;;3.33;2.57;;;;;;;;;;5041199;28;20859;-76
2022/08/09 11:14:10;;;;;;;4.80;2.60;;;;;;;;;;5051726;28;20427;-76
2022/08/09 11:16:37;;;;;;;4.67;2.73;;;;;;;;;;5053360;28;20832;-76
2022/08/09 11:19:05;;;;;;;3.00;2.30;;;;;;;;;;5051888;28;20448;-76
2022/08/09 11:21:49;;;;;;;5.33;2.67;;;;;;;;;;5052813;28;20420;-76
2022/08/09 11:24:16;;;;;;;4.93;2.30;;;;;;;;;;5052840;28;20479;-76
2022/08/09 11:26:43;;;;;;;4.47;2.53;;;;;;;;;;5052928;28;20424;-76
2022/08/09 11:29:29;;;;;;;3.60;2.50;;;;;;;;;;5052805;28;20979;-78
2022/08/09 11:31:55;;;;;;;9.00;2.43;;;;;;;;;;5052613;28;20451;-76
2022/08/09 11:34:21;;;;;;;2.97;2.47;;;;;;;;;;5052808;28;20416;-76
2022/08/09 11:36:47;;;;;;;2.80;2.10;;;;;;;;;;5052745;28;20412;-76
2022/08/09 11:39:13;;;;;;;2.60;2.40;;;;;;;;;;5052639;28;20412;-76
2022/08/09 11:41:39;;;;;;;5.33;2.60;;;;;;;;;;5052378;28;20919;-76
2022/08/09 11:44:06;;;;;;;2.47;2.27;;;;;;;;;;5052799;28;20508;-76
2022/08/09 11:46:51;;;;;;;3.27;2.10;;;;;;;;;;5052833;28;20404;-76
2022/08/09 11:49:17;;;;;;;4.80;2.40;;;;;;;;;;5052691;28;20405;-76
2022/08/09 11:52:09;;;;;;;4.20;2.20;;;;;;;;;;5055894;28;20428;-76
2022/08/09 11:54:35;;;;;;;4.60;2.50;;;;;;;;;;5053964;28;20432;-75
2022/08/09 11:57:20;;;;;;;3.73;2.30;;;;;;;;;;5056677;28;20421;-76
2022/08/09 11:59:46;;;;;;;4.70;2.70;;;;;;;;;;5056189;28;20440;-76
2022/08/09 12:02:12;;;;;;;5.33;2.50;;;;;;;;;;5056572;28;20412;-76
2022/08/09 12:04:38;;;;;;;3.60;2.43;;;;;;;;;;5056643;28;20806;-76
2022/08/09 12:07:05;;;;;;;5.80;2.47;;;;;;;;;;5056589;28;20411;-76
2022/08/09 12:09:31;;;;;;;2.90;2.50;;;;;;;;;;5056133;28;20817;-78
2022/08/09 12:12:00;;;;;;;6.13;2.60;;;;;;;;;;5056391;28;20460;-76
2022/08/09 12:14:29;;;;;;;2.10;1.97;;;;;;;;;;5056344;28;20419;-76
2022/08/09 12:16:55;;;;;;;2.20;2.00;;;;;;;;;;5056261;28;20784;-76
2022/08/09 12:19:28;;;;;;;4.80;2.77;;;;;;;;;;5056560;28;20870;-76
2022/08/09 12:21:58;;;;;;;2.80;2.50;;;;;;;;;;5055810;28;20436;-76
2022/08/09 12:24:24;;;;;;;5.93;2.80;;;;;;;;;;5056115;28;20448;-75
2022/08/09 12:26:51;;;;;;;2.70;2.17;;;;;;;;;;5056058;28;20409;-76
2022/08/09 12:29:18;;;;;;;2.30;2.10;;;;;;;;;;5056259;28;21018;-75
2022/08/09 12:31:45;;;;;;;4.23;2.17;;;;;;;;;;5055515;28;20428;-76
2022/08/09 12:34:11;;;;;;;3.20;2.37;;;;;;;;;;5056068;28;20393;-76
2022/08/09 12:36:53;;;;;;;4.50;2.17;;;;;;;;;;5055762;28;20412;-75
2022/08/09 12:39:19;;;;;;;4.23;2.37;;;;;;;;;;5055881;28;20604;-76
2022/08/09 12:41:45;;;;;;;3.60;2.40;;;;;;;;;;5055108;28;20452;-76
2022/08/09 12:44:11;;;;;;;2.67;2.40;;;;;;;;;;5055677;28;20423;-75
2022/08/09 12:46:39;;;;;;;5.90;2.60;;;;;;;;;;5055667;28;20811;-76
2022/08/09 12:49:07;;;;;;;10.00;2.47;;;;;;;;;;5055614;28;20405;-76
2022/08/09 12:51:34;;;;;;;5.00;2.57;;;;;;;;;;5054890;28;20437;-76
2022/08/09 12:54:01;;;;;;;3.13;2.30;;;;;;;;;;5054066;28;20412;-76
2022/08/09 12:56:27;;;;;;;4.07;2.33;;;;;;;;;;5055558;28;20405;-76
2022/08/09 12:59:04;;;;;;;2.30;1.97;;;;;;;;;;5055648;28;20411;-76
2022/08/09 13:01:30;;;;;;;5.70;2.87;;;;;;;;;;5055040;28;20948;-76
2022/08/09 13:03:58;;;;;;;3.10;2.17;;;;;;;;;;5055137;28;20423;-76
2022/08/09 13:06:25;;;;;;;4.23;2.37;;;;;;;;;;5055360;28;20507;-76
2022/08/09 13:08:58;;;;;;;7.77;2.27;;;;;;;;;;5055157;28;20415;-76
2022/08/09 13:11:28;;;;;;;8.33;2.30;;;;;;;;;;5054728;28;20464;-76
2022/08/09 13:13:56;;;;;;;2.60;2.40;;;;;;;;;;5055186;28;20796;-76
2022/08/09 13:16:22;;;;;;;2.87;2.00;;;;;;;;;;5055339;28;20791;-76
2022/08/09 13:18:49;;;;;;;3.10;2.13;;;;;;;;;;5055232;28;20412;-76
2022/08/09 13:21:22;;;;;;;2.53;1.97;;;;;;;;;;5054637;28;20434;-74
2022/08/09 13:23:49;;;;;;;2.50;2.30;;;;;;;;;;5055184;28;20416;-75
2022/08/09 13:26:34;;;;;;;4.13;2.00;;;;;;;;;;5054852;28;20464;-74
2022/08/09 13:29:02;;;;;;;2.97;2.27;;;;;;;;;;5054785;28;20858;-75
2022/08/09 13:31:28;;;;;;;2.33;2.00;;;;;;;;;;5054328;28;20428;-74
2022/08/09 13:33:55;;;;;;;3.70;2.00;;;;;;;;;;5054649;28;20413;-75
2022/08/09 13:36:21;;;;;;;2.93;2.20;;;;;;;;;;5054562;28;20530;-75
2022/08/09 13:38:47;;;;;;;2.70;1.90;;;;;;;;;;5054515;28;20420;-74
2022/08/09 13:41:19;;;;;;;2.37;2.07;;;;;;;;;;5054041;28;20502;-75
2022/08/09 13:43:45;;;;;;;4.97;2.10;;;;;;;;;;5054344;28;20776;-75
2022/08/09 13:46:11;;;;;;;4.00;2.00;;;;;;;;;;5054159;28;20548;-74
2022/08/09 13:48:37;;;;;;;4.17;2.10;;;;;;;;;;5054292;28;20750;-74
2022/08/09 13:51:03;;;;;;;4.63;2.13;;;;;;;;;;5053907;28;20433;-75
2022/08/09 13:53:29;;;;;;;3.57;2.10;;;;;;;;;;5052977;28;20929;-75
2022/08/09 13:55:55;;;;;;;3.37;2.10;;;;;;;;;;5054192;28;20416;-75
2022/08/09 13:58:21;;;;;;;2.90;1.90;;;;;;;;;;5054128;28;20408;-75
2022/08/09 14:00:47;;;;;;;2.43;2.03;;;;;;;;;;5053751;28;20807;-75
2022/08/09 14:03:13;;;;;;;3.73;2.03;;;;;;;;;;5054227;28;20768;-74
2022/08/09 14:05:39;;;;;;;2.93;2.10;;;;;;;;;;5054336;28;20467;-75
2022/08/09 14:08:05;;;;;;;2.33;1.90;;;;;;;;;;5054423;28;20413;-75
2022/08/09 14:10:32;;;;;;;2.20;1.80;;;;;;;;;;5053864;28;20432;-73
2022/08/09 14:12:58;;;;;;;2.60;2.17;;;;;;;;;;5053804;28;20412;-74
2022/08/09 14:15:24;;;;;;;2.13;2.00;;;;;;;;;;5054039;28;20515;-73
2022/08/09 14:17:50;;;;;;;5.50;2.37;;;;;;;;;;5054415;28;20495;-74
2022/08/09 14:20:16;;;;;;;4.43;2.00;;;;;;;;;;5053596;28;20428;-74
2022/08/09 14:22:42;;;;;;;2.17;1.43;;;;;;;;;;5053917;28;20461;-73
2022/08/09 14:25:08;;;;;;;5.67;1.90;;;;;;;;;;5054053;28;20455;-75
2022/08/09 14:27:34;;;;;;;4.40;2.63;;;;;;;;;;5053819;28;20461;-75
2022/08/09 14:30:00;;;;;;;4.13;2.30;;;;;;;;;;5053481;28;20970;-75
2022/08/09 14:32:27;;;;;;;2.47;1.67;;;;;;;;;;5053748;28;20412;-74
2022/08/09 14:34:53;;;;;;;4.37;1.90;;;;;;;;;;5053680;28;20413;-75
2022/08/09 14:37:19;;;;;;;2.80;2.27;;;;;;;;;;5053753;28;20489;-75
2022/08/09 14:39:45;;;;;;;3.10;1.80;;;;;;;;;;5045684;28;20504;-75
2022/08/09 14:42:11;;;;;;;2.07;1.70;;;;;;;;;;5044096;28;20519;-76
2022/08/09 14:44:37;;;;;;;1.70;1.60;;;;;;;;;;5041345;28;20463;-75
2022/08/09 14:47:03;;;;;;;2.53;1.97;;;;;;;;;;5033016;28;20448;-75
2022/08/09 14:49:29;;;;;;;2.50;1.90;;;;;;;;;;5033149;28;20437;-75
2022/08/09 14:51:55;;;;;;;1.50;1.40;;;;;;;;;;5033176;28;20471;-75
2022/08/09 14:54:21;;;;;;;2.03;1.60;;;;;;;;;;5033647;28;20898;-75
2022/08/09 14:56:47;;;;;;;2.00;1.80;;;;;;;;;;5032114;28;20905;-75